createdAt,value
2024-03-30T00:01:27.103Z,97533.56
2024-03-30T00:03:55.164Z,97530.08
2024-03-30T00:06:23.754Z,97527.83
2024-03-30T00:08:52.027Z,97526.83
2024-03-30T00:11:20.413Z,97530.59
2024-03-30T00:13:48.789Z,97525.41
2024-03-30T00:16:19.121Z,97533.41
2024-03-30T00:18:47.486Z,97540.40
2024-03-30T00:21:16.511Z,97534.59
2024-03-30T00:23:48.068Z,97531.59
2024-03-30T00:26:17.272Z,97529.52
2024-03-30T00:28:47.638Z,97526.52
2024-03-30T00:31:16.892Z,97526.32
2024-03-30T00:33:46.976Z,97523.75
2024-03-30T00:36:15.500Z,97521.90
2024-03-30T00:38:46.858Z,97517.80
2024-03-30T00:41:15.469Z,97515.63
2024-03-30T00:43:45.611Z,97515.70
2024-03-30T00:46:14.173Z,97514.12
2024-03-30T00:48:42.419Z,97516.35
2024-03-30T00:51:11.318Z,97512.48
2024-03-30T00:53:40.749Z,97509.92
2024-03-30T00:56:09.088Z,97509.53
2024-03-30T00:58:37.366Z,97510.59
2024-03-30T01:01:06.300Z,97514.70
2024-03-30T01:03:34.810Z,97509.03
2024-03-30T01:06:03.581Z,97507.11
2024-03-30T01:08:31.776Z,97508.04
2024-03-30T01:11:00.761Z,97513.14
2024-03-30T01:13:31.018Z,97512.52
2024-03-30T01:16:00.071Z,97510.89
2024-03-30T01:18:28.818Z,97507.30
2024-03-30T01:20:59.618Z,97506.52
2024-03-30T01:23:30.832Z,97509.79
2024-03-30T01:26:01.260Z,97508.17
2024-03-30T01:28:31.229Z,97502.34
2024-03-30T01:31:01.203Z,97501.16
2024-03-30T01:33:30.157Z,97502.15
2024-03-30T01:35:59.254Z,97508.21
2024-03-30T01:38:28.234Z,97512.98
2024-03-30T01:40:57.403Z,97504.52
2024-03-30T01:43:27.821Z,97508.98
2024-03-30T01:45:59.258Z,97505.42
2024-03-30T01:48:28.800Z,97509.15
2024-03-30T01:50:57.442Z,97510.55
2024-03-30T01:53:36.708Z,97507.99
2024-03-30T01:56:10.907Z,97515.79
2024-03-30T01:58:40.099Z,97516.89
2024-03-30T02:01:09.257Z,97511.55
2024-03-30T02:03:38.101Z,97511.52
2024-03-30T02:06:08.596Z,97513.20
2024-03-30T02:08:37.636Z,97510.00
2024-03-30T02:11:06.505Z,97507.98
2024-03-30T02:13:36.604Z,97505.69
2024-03-30T02:16:05.370Z,97500.10
2024-03-30T02:18:34.339Z,97495.34
2024-03-30T02:21:03.029Z,97500.60
2024-03-30T02:23:32.055Z,97495.10
2024-03-30T02:26:02.039Z,97492.23
2024-03-30T02:28:30.963Z,97492.30
2024-03-30T02:31:00.132Z,97487.27
2024-03-30T02:33:28.644Z,97477.67
2024-03-30T02:35:58.514Z,97474.73
2024-03-30T02:38:27.209Z,97472.81
2024-03-30T02:40:58.151Z,97470.44
2024-03-30T02:43:26.991Z,97475.20
2024-03-30T02:45:55.702Z,97468.92
2024-03-30T02:48:24.451Z,97465.31
2024-03-30T02:50:52.976Z,97460.00
2024-03-30T02:53:21.414Z,97466.31
2024-03-30T02:55:50.289Z,97469.48
2024-03-30T02:58:19.298Z,97468.54
2024-03-30T03:00:49.000Z,97471.04
2024-03-30T03:03:17.774Z,97469.80
2024-03-30T03:05:46.579Z,97470.64
2024-03-30T03:08:15.878Z,97472.15
2024-03-30T03:10:44.932Z,97470.81
2024-03-30T03:13:13.535Z,97473.50
2024-03-30T03:15:42.042Z,97467.80
2024-03-30T03:18:10.985Z,97470.91
2024-03-30T03:20:39.486Z,97474.95
2024-03-30T03:23:08.486Z,97475.27
2024-03-30T03:25:36.975Z,97478.70
2024-03-30T03:28:05.703Z,97474.60
2024-03-30T03:30:34.239Z,97475.19
2024-03-30T03:33:02.780Z,97474.81
2024-03-30T03:35:31.436Z,97477.04
2024-03-30T03:37:59.937Z,97474.68
2024-03-30T03:40:28.994Z,97481.23
2024-03-30T03:42:57.565Z,97476.55
2024-03-30T03:45:25.960Z,97479.45
2024-03-30T03:47:54.702Z,97481.27
2024-03-30T03:50:23.110Z,97479.65
2024-03-30T03:52:51.703Z,97485.89
2024-03-30T03:55:21.163Z,97487.39
2024-03-30T03:57:52.225Z,97489.04
2024-03-30T04:00:20.930Z,97496.98
2024-03-30T04:02:49.818Z,97491.95
2024-03-30T04:05:18.763Z,97491.09
2024-03-30T04:07:47.680Z,97492.09
2024-03-30T04:10:16.854Z,97492.10
2024-03-30T04:12:45.677Z,97490.19
2024-03-30T04:15:14.275Z,97487.39
2024-03-30T04:17:43.229Z,97490.73
2024-03-30T04:20:11.991Z,97492.27
2024-03-30T04:22:40.792Z,97493.13
2024-03-30T04:25:09.429Z,97498.55
2024-03-30T04:27:37.638Z,97499.78
2024-03-30T04:30:08.716Z,97497.92
2024-03-30T04:32:37.147Z,97497.03
2024-03-30T04:35:05.852Z,97502.02
2024-03-30T04:37:34.358Z,97500.41
2024-03-30T04:40:02.860Z,97504.30
2024-03-30T04:42:31.614Z,97497.63
2024-03-30T04:45:00.251Z,97495.60
2024-03-30T04:47:29.146Z,97492.52
2024-03-30T04:49:58.199Z,97493.23
2024-03-30T04:52:27.091Z,97498.80
2024-03-30T04:54:55.850Z,97498.66
2024-03-30T04:57:25.586Z,97495.52
2024-03-30T04:59:54.584Z,97494.52
2024-03-30T05:02:23.361Z,97498.51
2024-03-30T05:04:51.838Z,97500.14
2024-03-30T05:07:20.323Z,97497.88
2024-03-30T05:09:48.904Z,97504.80
2024-03-30T05:12:17.305Z,97506.97
2024-03-30T05:14:45.661Z,97504.71
2024-03-30T05:17:14.345Z,97506.41
2024-03-30T05:20:01.470Z,97504.88
2024-03-30T05:22:30.255Z,97510.04
2024-03-30T05:24:58.716Z,97503.65
2024-03-30T05:27:27.187Z,97500.63
2024-03-30T05:29:59.207Z,97501.14
2024-03-30T05:32:27.991Z,97503.18
2024-03-30T05:34:56.540Z,97496.95
2024-03-30T05:37:25.762Z,97497.65
2024-03-30T05:39:54.614Z,97495.20
2024-03-30T05:42:23.150Z,97494.86
2024-03-30T05:44:52.315Z,97494.85
2024-03-30T05:47:20.549Z,97490.93
2024-03-30T05:49:48.947Z,97489.02
2024-03-30T05:52:17.227Z,97486.71
2024-03-30T05:54:45.468Z,97485.52
2024-03-30T05:57:13.949Z,97485.73
2024-03-30T05:59:42.719Z,97489.89
2024-03-30T06:02:11.051Z,97485.41
2024-03-30T06:04:39.634Z,97489.19
2024-03-30T06:07:10.063Z,97495.50
2024-03-30T06:09:39.014Z,97498.03
2024-03-30T06:12:07.638Z,97496.73
2024-03-30T06:14:36.108Z,97495.66
2024-03-30T06:17:04.713Z,97489.73
2024-03-30T06:19:33.248Z,97496.10
2024-03-30T06:22:01.843Z,97495.23
2024-03-30T06:24:30.969Z,97495.60
2024-03-30T06:26:59.593Z,97496.95
2024-03-30T06:29:28.188Z,97495.98
2024-03-30T06:31:56.859Z,97491.39
2024-03-30T06:34:25.811Z,97493.95
2024-03-30T06:36:54.557Z,97496.21
2024-03-30T06:39:23.131Z,97496.41
2024-03-30T06:42:09.891Z,97490.59
2024-03-30T06:44:38.668Z,97492.96
2024-03-30T06:47:07.212Z,97486.44
2024-03-30T06:49:36.561Z,97485.73
2024-03-30T06:52:05.951Z,97481.80
2024-03-30T06:54:34.533Z,97485.20
2024-03-30T06:57:02.869Z,97482.70
2024-03-30T06:59:31.533Z,97480.65
2024-03-30T07:02:03.569Z,97479.33
2024-03-30T07:04:31.944Z,97474.94
2024-03-30T07:07:00.618Z,97477.63
2024-03-30T07:09:31.497Z,97482.66
2024-03-30T07:12:00.378Z,97480.75
2024-03-30T07:14:28.953Z,97477.48
2024-03-30T07:17:13.983Z,97481.85
2024-03-30T07:19:43.497Z,97484.27
2024-03-30T07:22:11.877Z,97484.27
2024-03-30T07:24:40.420Z,97488.31
2024-03-30T07:27:08.954Z,97487.22
2024-03-30T07:29:37.771Z,97485.87
2024-03-30T07:32:06.806Z,97481.75
2024-03-30T07:34:35.320Z,97484.16
2024-03-30T07:37:03.950Z,97484.15
2024-03-30T07:39:32.312Z,97482.81
2024-03-30T07:42:00.766Z,97480.23
2024-03-30T07:44:30.967Z,97484.56
2024-03-30T07:46:59.736Z,97487.77
2024-03-30T07:49:28.537Z,97491.30
2024-03-30T07:51:57.203Z,97490.23
2024-03-30T07:54:25.896Z,97486.16
2024-03-30T07:57:00.238Z,97487.42
2024-03-30T07:59:28.908Z,97487.27
2024-03-30T08:01:58.107Z,97489.20
2024-03-30T08:04:26.582Z,97487.89
2024-03-30T08:06:56.709Z,97484.23
2024-03-30T08:09:25.716Z,97479.77
2024-03-30T08:11:55.726Z,97479.61
2024-03-30T08:14:24.334Z,97479.29
2024-03-30T08:16:52.784Z,97479.00
2024-03-30T08:19:21.018Z,97479.43
2024-03-30T08:21:52.408Z,97477.11
2024-03-30T08:24:20.744Z,97475.35
2024-03-30T08:26:49.317Z,97472.54
2024-03-30T08:29:17.698Z,97467.63
2024-03-30T08:31:46.067Z,97463.86
2024-03-30T08:34:15.303Z,97464.02
2024-03-30T08:36:44.839Z,97462.00
2024-03-30T08:39:13.483Z,97454.73
2024-03-30T08:41:43.818Z,97452.00
2024-03-30T08:44:13.160Z,97454.25
2024-03-30T08:46:42.152Z,97454.94
2024-03-30T08:49:11.543Z,97454.04
2024-03-30T08:51:40.329Z,97452.23
2024-03-30T08:54:10.139Z,97444.27
2024-03-30T08:56:38.916Z,97436.96
2024-03-30T08:59:07.953Z,97436.95
2024-03-30T09:01:36.213Z,97427.77
2024-03-30T09:04:05.120Z,97421.39
2024-03-30T09:06:34.046Z,97426.75
2024-03-30T09:09:02.393Z,97419.46
2024-03-30T09:11:31.355Z,97421.39
2024-03-30T09:13:59.659Z,97417.41
2024-03-30T09:16:28.422Z,97413.47
2024-03-30T09:18:58.305Z,97409.45
2024-03-30T09:21:26.741Z,97407.91
2024-03-30T09:23:55.363Z,97410.62
2024-03-30T09:26:23.811Z,97413.54
2024-03-30T09:28:52.245Z,97406.58
2024-03-30T09:31:20.937Z,97401.77
2024-03-30T09:33:49.737Z,97399.72
2024-03-30T09:36:19.815Z,97396.36
2024-03-30T09:38:48.561Z,97388.90
2024-03-30T09:41:19.780Z,97390.25
2024-03-30T09:43:48.669Z,97383.68
2024-03-30T09:46:17.450Z,97380.36
2024-03-30T09:48:48.233Z,97375.81
2024-03-30T09:51:18.225Z,97379.98
2024-03-30T09:53:46.738Z,97377.11
2024-03-30T09:56:17.374Z,97372.64
2024-03-30T09:58:47.974Z,97363.41
2024-03-30T10:01:17.082Z,97359.13
2024-03-30T10:03:46.364Z,97362.51
2024-03-30T10:06:23.680Z,97355.02
2024-03-30T10:08:56.717Z,97356.83
2024-03-30T10:11:28.750Z,97353.59
2024-03-30T10:14:15.564Z,97350.84
2024-03-30T10:16:47.192Z,97354.15
2024-03-30T10:19:19.813Z,97354.61
2024-03-30T10:21:50.881Z,97352.02
2024-03-30T10:24:19.521Z,97349.23
2024-03-30T10:26:49.319Z,97342.71
2024-03-30T10:29:17.894Z,97336.64
2024-03-30T10:31:46.905Z,97336.16
2024-03-30T10:34:15.799Z,97334.09
2024-03-30T10:36:44.833Z,97333.40
2024-03-30T10:39:13.161Z,97324.31
2024-03-30T10:41:45.374Z,97321.25
2024-03-30T10:44:14.922Z,97317.13
2024-03-30T10:46:44.435Z,97312.72
2024-03-30T10:49:14.347Z,97302.48
2024-03-30T10:51:44.051Z,97303.83
2024-03-30T10:54:20.447Z,97302.85
2024-03-30T10:56:53.255Z,97304.98
2024-03-30T10:59:22.214Z,97302.77
2024-03-30T11:01:52.501Z,97299.54
2024-03-30T11:04:24.678Z,97296.14
2024-03-30T11:06:53.871Z,97294.13
2024-03-30T11:09:23.917Z,97293.19
2024-03-30T11:11:52.952Z,97288.98
2024-03-30T11:14:21.672Z,97288.53
2024-03-30T11:16:54.713Z,97284.71
2024-03-30T11:19:35.752Z,97278.76
2024-03-30T11:22:18.024Z,97276.49
2024-03-30T11:25:00.991Z,97276.02
2024-03-30T11:27:34.687Z,97270.45
2024-03-30T11:30:49.797Z,97265.65
2024-03-30T11:33:28.592Z,97260.79
2024-03-30T11:36:20.538Z,97254.91
2024-03-30T11:38:59.525Z,97253.27
2024-03-30T11:41:28.371Z,97251.64
2024-03-30T11:44:11.228Z,97245.10
2024-03-30T11:46:40.314Z,97235.86
2024-03-30T11:49:09.981Z,97230.33
2024-03-30T11:51:43.078Z,97223.99
2024-03-30T11:54:29.472Z,97216.63
2024-03-30T11:57:23.240Z,97216.77
2024-03-30T11:59:55.432Z,97214.80
2024-03-30T12:02:26.445Z,97211.05
2024-03-30T12:04:54.931Z,97209.49
2024-03-30T12:07:23.557Z,97208.06
2024-03-30T12:09:53.121Z,97203.97
2024-03-30T12:12:26.779Z,97201.11
2024-03-30T12:14:57.659Z,97198.80
2024-03-30T12:17:26.794Z,97192.38
2024-03-30T12:19:59.098Z,97194.77
2024-03-30T12:22:27.856Z,97189.02
2024-03-30T12:24:57.578Z,97181.27
2024-03-30T12:27:26.484Z,97181.52
2024-03-30T12:29:56.956Z,97178.52
2024-03-30T12:32:25.536Z,97177.05
2024-03-30T12:34:56.112Z,97170.25
2024-03-30T12:37:25.446Z,97167.52
2024-03-30T12:39:54.828Z,97162.02
2024-03-30T12:42:23.126Z,97161.80
2024-03-30T12:44:58.646Z,97158.48
2024-03-30T12:47:27.603Z,97156.22
2024-03-30T12:49:56.904Z,97154.31
2024-03-30T12:52:26.024Z,97152.60
2024-03-30T12:54:54.651Z,97150.56
2024-03-30T12:57:25.926Z,97152.79
2024-03-30T12:59:58.081Z,97150.41
2024-03-30T13:02:29.067Z,97149.73
2024-03-30T13:05:09.626Z,97147.16
2024-03-30T13:07:41.024Z,97142.88
2024-03-30T13:10:11.836Z,97137.80
2024-03-30T13:12:40.369Z,97130.80
2024-03-30T13:15:09.007Z,97128.27
2024-03-30T13:17:37.399Z,97128.00
2024-03-30T13:20:09.777Z,97119.70
2024-03-30T13:22:43.448Z,97117.23
2024-03-30T13:25:14.069Z,97117.84
2024-03-30T13:27:44.302Z,97113.61
2024-03-30T13:30:16.041Z,97107.01
2024-03-30T13:32:45.935Z,97107.11
2024-03-30T13:35:15.115Z,97107.08
2024-03-30T13:37:47.567Z,97100.60
2024-03-30T13:40:16.922Z,97093.92
2024-03-30T13:42:45.663Z,97089.17
2024-03-30T13:45:15.892Z,97083.84
2024-03-30T13:47:44.964Z,97081.41
2024-03-30T13:50:13.583Z,97075.53
2024-03-30T13:52:45.983Z,97076.16
2024-03-30T13:55:14.790Z,97071.92
2024-03-30T13:57:43.227Z,97069.06
2024-03-30T14:00:13.276Z,97061.45
2024-03-30T14:02:42.486Z,97054.60
2024-03-30T14:05:10.966Z,97056.65
2024-03-30T14:07:39.899Z,97051.54
2024-03-30T14:10:08.931Z,97047.77
2024-03-30T14:12:37.931Z,97048.40
2024-03-30T14:15:06.931Z,97048.35
2024-03-30T14:17:40.554Z,97049.22
2024-03-30T14:20:09.572Z,97043.66
2024-03-30T14:22:40.387Z,97040.38
2024-03-30T14:25:08.955Z,97035.63
2024-03-30T14:27:37.519Z,97034.59
2024-03-30T14:30:07.769Z,97029.90
2024-03-30T14:32:36.771Z,97027.21
2024-03-30T14:35:06.040Z,97025.97
2024-03-30T14:37:34.561Z,97023.48
2024-03-30T14:40:06.313Z,97024.34
2024-03-30T14:42:35.580Z,97021.60
2024-03-30T14:45:04.975Z,97021.55
2024-03-30T14:47:33.816Z,97020.40
2024-03-30T14:50:02.937Z,97019.05
2024-03-30T14:52:31.795Z,97016.48
2024-03-30T14:55:00.640Z,97012.43
2024-03-30T14:57:30.103Z,97016.39
2024-03-30T14:59:58.787Z,97017.91
2024-03-30T15:02:27.610Z,97014.34
2024-03-30T15:04:57.405Z,97011.48
2024-03-30T15:07:28.713Z,97017.96
2024-03-30T15:09:59.721Z,97019.36
2024-03-30T15:12:29.205Z,97015.09
2024-03-30T15:14:58.412Z,97012.99
2024-03-30T15:17:27.565Z,97009.16
2024-03-30T15:19:57.354Z,97006.68
2024-03-30T15:22:26.434Z,97007.59
2024-03-30T15:24:55.964Z,97003.19
2024-03-30T15:27:25.833Z,97006.01
2024-03-30T15:30:13.698Z,97002.52
2024-03-30T15:32:42.793Z,97002.95
2024-03-30T15:35:12.001Z,96999.42
2024-03-30T15:37:44.584Z,97005.34
2024-03-30T15:40:13.732Z,97008.08
2024-03-30T15:42:43.248Z,97011.44
2024-03-30T15:45:12.765Z,97013.20
2024-03-30T15:47:43.860Z,97012.38
2024-03-30T15:50:12.323Z,97015.61
2024-03-30T15:52:40.570Z,97018.07
2024-03-30T15:55:09.497Z,97023.67
2024-03-30T15:57:38.212Z,97026.08
2024-03-30T16:00:08.145Z,97026.42
2024-03-30T16:02:38.354Z,97022.89
2024-03-30T16:05:07.741Z,97023.27
2024-03-30T16:07:36.988Z,97028.33
2024-03-30T16:10:06.552Z,97028.06
2024-03-30T16:12:35.576Z,97023.70
2024-03-30T16:15:08.077Z,97029.50
2024-03-30T16:17:37.772Z,97029.31
2024-03-30T16:20:07.025Z,97025.36
2024-03-30T16:22:36.264Z,97030.66
2024-03-30T16:25:05.357Z,97030.10
2024-03-30T16:27:34.130Z,97036.67
2024-03-30T16:30:06.407Z,97037.63
2024-03-30T16:32:37.518Z,97039.67
2024-03-30T16:35:07.696Z,97041.67
2024-03-30T16:37:36.909Z,97038.55
2024-03-30T16:40:05.975Z,97044.61
2024-03-30T16:42:35.182Z,97046.60
2024-03-30T16:45:03.969Z,97047.09
2024-03-30T16:47:32.424Z,97045.79
2024-03-30T16:50:01.248Z,97048.06
2024-03-30T16:52:30.626Z,97052.85
2024-03-30T16:54:59.017Z,97055.88
2024-03-30T16:57:27.603Z,97058.85
2024-03-30T16:59:55.999Z,97062.54
2024-03-30T17:02:24.275Z,97064.60
2024-03-30T17:04:53.024Z,97065.00
2024-03-30T17:07:22.247Z,97071.87
2024-03-30T17:09:51.101Z,97070.77
2024-03-30T17:12:20.152Z,97073.11
2024-03-30T17:14:49.138Z,97074.81
2024-03-30T17:17:17.976Z,97074.10
2024-03-30T17:19:50.862Z,97077.02
2024-03-30T17:22:20.717Z,97077.18
2024-03-30T17:24:49.563Z,97080.64
2024-03-30T17:27:17.957Z,97079.39
2024-03-30T17:29:46.758Z,97081.69
2024-03-30T17:32:15.693Z,97083.66
2024-03-30T17:34:53.550Z,97083.23
2024-03-30T17:37:25.388Z,97085.52
2024-03-30T17:39:53.640Z,97083.44
2024-03-30T17:42:23.377Z,97083.41
2024-03-30T17:44:52.071Z,97082.65
2024-03-30T17:47:20.744Z,97083.60
2024-03-30T17:49:51.734Z,97087.70
2024-03-30T17:52:20.128Z,97087.03
2024-03-30T17:54:49.274Z,97085.29
2024-03-30T17:57:17.797Z,97087.30
2024-03-30T17:59:46.636Z,97083.77
2024-03-30T18:02:14.952Z,97086.65
2024-03-30T18:04:43.508Z,97093.04
2024-03-30T18:07:12.447Z,97094.95
2024-03-30T18:09:41.339Z,97094.41
2024-03-30T18:12:10.161Z,97097.27
2024-03-30T18:14:38.914Z,97095.83
2024-03-30T18:17:07.220Z,97096.64
2024-03-30T18:19:40.174Z,97096.33
2024-03-30T18:22:09.311Z,97101.88
2024-03-30T18:24:38.222Z,97100.64
2024-03-30T18:27:07.163Z,97104.65
2024-03-30T18:29:37.173Z,97109.06
2024-03-30T18:32:06.336Z,97105.41
2024-03-30T18:34:34.951Z,97109.39
2024-03-30T18:37:03.505Z,97112.30
2024-03-30T18:39:31.948Z,97115.67
2024-03-30T18:42:01.110Z,97116.63
2024-03-30T18:44:29.281Z,97119.70
2024-03-30T18:46:57.583Z,97120.48
2024-03-30T18:49:26.214Z,97119.91
2024-03-30T18:51:54.835Z,97126.10
2024-03-30T18:54:23.173Z,97124.20
2024-03-30T18:56:54.203Z,97123.34
2024-03-30T18:59:25.900Z,97127.64
2024-03-30T19:01:54.155Z,97133.19
2024-03-30T19:04:22.778Z,97131.79
2024-03-30T19:06:51.103Z,97127.02
2024-03-30T19:09:19.638Z,97128.10
2024-03-30T19:11:48.295Z,97128.04
2024-03-30T19:14:17.161Z,97124.66
2024-03-30T19:16:45.982Z,97122.55
2024-03-30T19:19:16.983Z,97129.40
2024-03-30T19:21:45.327Z,97129.86
2024-03-30T19:24:13.785Z,97133.46
2024-03-30T19:26:42.813Z,97138.70
2024-03-30T19:29:13.593Z,97139.58
2024-03-30T19:31:42.169Z,97137.99
2024-03-30T19:34:14.034Z,97136.32
2024-03-30T19:36:45.092Z,97140.69
2024-03-30T19:39:14.024Z,97142.02
2024-03-30T19:41:43.395Z,97141.02
2024-03-30T19:44:11.698Z,97140.81
2024-03-30T19:46:40.066Z,97140.83
2024-03-30T19:49:08.442Z,97142.33
2024-03-30T19:51:37.188Z,97136.67
2024-03-30T19:54:05.531Z,97144.55
2024-03-30T19:56:35.158Z,97143.25
2024-03-30T19:59:04.569Z,97141.92
2024-03-30T20:01:33.269Z,97142.48
2024-03-30T20:04:02.102Z,97145.45
2024-03-30T20:06:31.059Z,97154.66
2024-03-30T20:08:59.309Z,97154.87
2024-03-30T20:11:29.254Z,97155.52
2024-03-30T20:13:57.505Z,97157.76
2024-03-30T20:16:26.084Z,97161.66
2024-03-30T20:18:56.822Z,97165.40
2024-03-30T20:21:25.109Z,97167.27
2024-03-30T20:23:53.910Z,97169.55
2024-03-30T20:26:22.434Z,97172.23
2024-03-30T20:28:50.502Z,97171.80
2024-03-30T20:31:18.732Z,97173.08
2024-03-30T20:33:47.155Z,97176.52
2024-03-30T20:36:15.355Z,97173.80
2024-03-30T20:38:43.339Z,97173.40
2024-03-30T20:41:12.619Z,97173.37
2024-03-30T20:43:42.394Z,97177.33
2024-03-30T20:46:13.865Z,97179.15
2024-03-30T20:48:46.339Z,97180.66
2024-03-30T20:51:15.073Z,97182.64
2024-03-30T20:53:43.232Z,97186.97
2024-03-30T20:56:11.642Z,97189.23
2024-03-30T20:58:40.729Z,97188.25
2024-03-30T21:01:08.774Z,97191.00
2024-03-30T21:03:36.981Z,97193.79
2024-03-30T21:06:07.371Z,97193.80
2024-03-30T21:08:36.171Z,97198.34
2024-03-30T21:11:04.628Z,97200.98
2024-03-30T21:13:34.129Z,97203.27
2024-03-30T21:16:03.439Z,97205.95
2024-03-30T21:18:32.187Z,97204.36
2024-03-30T21:21:02.135Z,97207.58
2024-03-30T21:23:33.597Z,97206.63
2024-03-30T21:26:11.177Z,97204.05
2024-03-30T21:28:46.390Z,97206.66
2024-03-30T21:31:15.616Z,97211.66
2024-03-30T21:33:44.120Z,97208.89
2024-03-30T21:36:12.802Z,97207.37
2024-03-30T21:38:41.460Z,97208.71
2024-03-30T21:41:09.842Z,97208.16
2024-03-30T21:43:38.106Z,97211.94
2024-03-30T21:46:06.498Z,97209.71
2024-03-30T21:48:34.694Z,97213.98
2024-03-30T21:51:03.438Z,97213.22
2024-03-30T21:53:32.067Z,97208.36
2024-03-30T21:56:01.017Z,97216.08
2024-03-30T21:58:29.512Z,97210.91
2024-03-30T22:00:58.388Z,97214.67
2024-03-30T22:03:26.606Z,97217.73
2024-03-30T22:05:59.385Z,97222.71
2024-03-30T22:08:28.152Z,97227.08
2024-03-30T22:10:56.656Z,97224.16
2024-03-30T22:13:25.165Z,97222.36
2024-03-30T22:15:53.790Z,97228.42
2024-03-30T22:18:22.220Z,97232.05
2024-03-30T22:20:50.677Z,97235.11
2024-03-30T22:23:19.807Z,97231.73
2024-03-30T22:25:48.635Z,97232.02
2024-03-30T22:28:17.510Z,97231.66
2024-03-30T22:30:46.534Z,97226.40
2024-03-30T22:33:15.055Z,97230.23
2024-03-30T22:35:43.492Z,97229.60
2024-03-30T22:38:12.249Z,97234.94
2024-03-30T22:40:41.550Z,97237.20
2024-03-30T22:43:10.421Z,97237.29
2024-03-30T22:45:38.928Z,97238.41
2024-03-30T22:48:07.424Z,97231.06
2024-03-30T22:50:36.001Z,97232.05
2024-03-30T22:53:04.804Z,97232.70
2024-03-30T22:55:33.164Z,97224.95
2024-03-30T22:58:01.772Z,97223.82
2024-03-30T23:00:30.565Z,97223.08
2024-03-30T23:02:58.980Z,97226.66
2024-03-30T23:05:27.622Z,97225.02
2024-03-30T23:07:56.510Z,97227.86
2024-03-30T23:10:25.292Z,97226.45
2024-03-30T23:12:54.269Z,97230.54
2024-03-30T23:15:23.184Z,97228.82
2024-03-30T23:17:53.499Z,97227.06
2024-03-30T23:20:22.470Z,97227.77
2024-03-30T23:22:50.946Z,97230.66
2024-03-30T23:25:19.500Z,97228.35
2024-03-30T23:27:51.160Z,97231.05
2024-03-30T23:30:19.486Z,97232.14
2024-03-30T23:32:50.375Z,97229.80
2024-03-30T23:35:19.822Z,97234.70
2024-03-30T23:37:48.487Z,97229.89
2024-03-30T23:40:16.839Z,97231.98
2024-03-30T23:42:46.890Z,97232.48
2024-03-30T23:45:18.256Z,97230.50
2024-03-30T23:47:48.877Z,97232.77
2024-03-30T23:50:17.799Z,97232.46
2024-03-30T23:52:53.021Z,97230.02
2024-03-30T23:55:21.651Z,97230.57
2024-03-30T23:57:50.184Z,97231.02
